sensor_id;sensor_type;location;lat;lon;timestamp;noise_LAeq;noise_LA_min;noise_LA_max;noise_LA01;noise_LA95
40103;Laerm;25814;48.550;9.108;2023-04-01T00:01:07;36.03;33.34;45.22;;
40103;Laerm;25814;48.550;9.108;2023-04-01T00:03:34;41.78;33.30;64.20;;
40103;Laerm;25814;48.550;9.108;2023-04-01T00:06:01;35.86;33.07;55.50;;
40103;Laerm;25814;48.550;9.108;2023-04-01T00:08:28;34.54;32.89;43.14;;
40103;Laerm;25814;48.550;9.108;2023-04-01T00:10:55;34.55;32.69;43.39;;
40103;Laerm;25814;48.550;9.108;2023-04-01T00:13:24;34.57;32.91;38.01;;
40103;Laerm;25814;48.550;9.108;2023-04-01T00:15:51;44.68;32.95;70.29;;
40103;Laerm;25814;48.550;9.108;2023-04-01T00:18:18;36.58;33.09;43.42;;
40103;Laerm;25814;48.550;9.108;2023-04-01T00:20:46;34.98;32.97;44.23;;
40103;Laerm;25814;48.550;9.108;2023-04-01T00:23:14;40.28;32.84;54.13;;
40103;Laerm;25814;48.550;9.108;2023-04-01T00:25:40;34.83;33.17;39.78;;
40103;Laerm;25814;48.550;9.108;2023-04-01T00:28:07;34.77;32.84;38.59;;
40103;Laerm;25814;48.550;9.108;2023-04-01T00:30:33;35.62;33.13;45.11;;
40103;Laerm;25814;48.550;9.108;2023-04-01T00:32:59;34.87;33.03;46.51;;
40103;Laerm;25814;48.550;9.108;2023-04-01T00:35:25;34.78;33.07;42.07;;
40103;Laerm;25814;48.550;9.108;2023-04-01T00:37:52;34.20;32.73;38.33;;
40103;Laerm;25814;48.550;9.108;2023-04-01T00:40:33;35.02;32.60;54.80;;
40103;Laerm;25814;48.550;9.108;2023-04-01T00:43:00;35.23;33.06;38.36;;
40103;Laerm;25814;48.550;9.108;2023-04-01T00:45:38;36.36;33.13;50.00;;
40103;Laerm;25814;48.550;9.108;2023-04-01T00:48:33;35.49;33.20;37.94;;
40103;Laerm;25814;48.550;9.108;2023-04-01T00:54:05;34.46;32.66;38.31;;
40103;Laerm;25814;48.550;9.108;2023-04-01T00:56:42;34.92;32.77;40.74;;
40103;Laerm;25814;48.550;9.108;2023-04-01T00:59:24;35.10;32.88;39.70;;
40103;Laerm;25814;48.550;9.108;2023-04-01T01:01:51;36.34;33.32;43.91;;
40103;Laerm;25814;48.550;9.108;2023-04-01T01:04:29;35.37;33.23;41.35;;
40103;Laerm;25814;48.550;9.108;2023-04-01T01:12:49;34.47;32.86;38.45;;
40103;Laerm;25814;48.550;9.108;2023-04-01T01:15:59;34.83;32.59;40.46;;
40103;Laerm;25814;48.550;9.108;2023-04-01T01:19:02;34.92;32.87;39.97;;
40103;Laerm;25814;48.550;9.108;2023-04-01T01:27:10;36.26;33.14;54.18;;
40103;Laerm;25814;48.550;9.108;2023-04-01T01:35:37;36.35;33.23;51.50;;
40103;Laerm;25814;48.550;9.108;2023-04-01T01:38:13;34.45;32.68;38.56;;
40103;Laerm;25814;48.550;9.108;2023-04-01T01:40:46;34.44;32.83;41.66;;
40103;Laerm;25814;48.550;9.108;2023-04-01T01:43:20;34.20;32.76;38.83;;
40103;Laerm;25814;48.550;9.108;2023-04-01T01:45:54;34.43;32.89;38.29;;
40103;Laerm;25814;48.550;9.108;2023-04-01T01:48:23;34.74;32.97;39.60;;
40103;Laerm;25814;48.550;9.108;2023-04-01T01:50:51;34.80;33.08;38.15;;
40103;Laerm;25814;48.550;9.108;2023-04-01T01:53:18;39.95;33.20;61.58;;
40103;Laerm;25814;48.550;9.108;2023-04-01T01:55:46;41.69;32.79;63.98;;
40103;Laerm;25814;48.550;9.108;2023-04-01T01:58:33;39.80;33.17;61.83;;
40103;Laerm;25814;48.550;9.108;2023-04-01T02:01:12;38.34;32.78;61.46;;
40103;Laerm;25814;48.550;9.108;2023-04-01T02:03:40;37.42;32.61;58.07;;
40103;Laerm;25814;48.550;9.108;2023-04-01T02:06:11;39.84;32.87;64.93;;
40103;Laerm;25814;48.550;9.108;2023-04-01T02:08:45;34.88;32.81;42.85;;
40103;Laerm;25814;48.550;9.108;2023-04-01T02:11:17;34.73;32.89;46.58;;
40103;Laerm;25814;48.550;9.108;2023-04-01T02:14:01;34.36;32.79;47.14;;
40103;Laerm;25814;48.550;9.108;2023-04-01T02:16:39;34.19;32.86;38.42;;
40103;Laerm;25814;48.550;9.108;2023-04-01T02:19:11;35.75;32.90;43.83;;
40103;Laerm;25814;48.550;9.108;2023-04-01T02:21:41;38.39;32.96;53.21;;
40103;Laerm;25814;48.550;9.108;2023-04-01T02:24:12;36.97;32.91;51.91;;
40103;Laerm;25814;48.550;9.108;2023-04-01T02:26:41;34.69;32.98;41.45;;
40103;Laerm;25814;48.550;9.108;2023-04-01T02:29:09;34.88;33.17;39.18;;
40103;Laerm;25814;48.550;9.108;2023-04-01T02:31:37;36.95;33.52;53.48;;
40103;Laerm;25814;48.550;9.108;2023-04-01T02:34:04;39.36;33.53;59.02;;
40103;Laerm;25814;48.550;9.108;2023-04-01T02:36:32;46.99;33.23;70.71;;
40103;Laerm;25814;48.550;9.108;2023-04-01T02:38:58;36.63;32.87;54.06;;
40103;Laerm;25814;48.550;9.108;2023-04-01T02:41:28;35.81;32.94;54.89;;
40103;Laerm;25814;48.550;9.108;2023-04-01T02:43:54;34.40;32.80;44.99;;
40103;Laerm;25814;48.550;9.108;2023-04-01T02:46:22;34.72;32.87;37.90;;
40103;Laerm;25814;48.550;9.108;2023-04-01T02:48:49;34.80;32.83;45.82;;
40103;Laerm;25814;48.550;9.108;2023-04-01T02:51:15;35.72;33.06;41.88;;
40103;Laerm;25814;48.550;9.108;2023-04-01T02:53:41;36.43;33.34;44.59;;
40103;Laerm;25814;48.550;9.108;2023-04-01T02:56:08;36.90;33.46;54.98;;
40103;Laerm;25814;48.550;9.108;2023-04-01T02:58:34;35.03;33.00;44.66;;
40103;Laerm;25814;48.550;9.108;2023-04-01T03:01:00;35.41;33.34;40.40;;
40103;Laerm;25814;48.550;9.108;2023-04-01T03:03:27;35.40;33.39;40.91;;
40103;Laerm;25814;48.550;9.108;2023-04-01T03:05:53;35.53;33.57;40.35;;
40103;Laerm;25814;48.550;9.108;2023-04-01T03:08:21;35.55;33.57;39.85;;
40103;Laerm;25814;48.550;9.108;2023-04-01T03:10:47;36.62;34.41;48.95;;
40103;Laerm;25814;48.550;9.108;2023-04-01T03:13:14;37.99;34.44;57.07;;
40103;Laerm;25814;48.550;9.108;2023-04-01T03:15:40;36.10;34.12;39.94;;
40103;Laerm;25814;48.550;9.108;2023-04-01T03:18:07;38.93;34.60;63.03;;
40103;Laerm;25814;48.550;9.108;2023-04-01T03:20:33;37.54;34.12;54.18;;
40103;Laerm;25814;48.550;9.108;2023-04-01T03:22:59;36.27;34.39;42.54;;
40103;Laerm;25814;48.550;9.108;2023-04-01T03:25:25;36.45;34.21;40.94;;
40103;Laerm;25814;48.550;9.108;2023-04-01T03:27:54;37.28;34.24;46.10;;
40103;Laerm;25814;48.550;9.108;2023-04-01T03:30:20;39.51;34.31;57.14;;
40103;Laerm;25814;48.550;9.108;2023-04-01T03:32:46;36.49;33.75;48.78;;
40103;Laerm;25814;48.550;9.108;2023-04-01T03:35:12;36.39;33.60;48.66;;
40103;Laerm;25814;48.550;9.108;2023-04-01T03:37:39;37.04;33.90;47.61;;
40103;Laerm;25814;48.550;9.108;2023-04-01T03:40:05;36.02;33.93;45.58;;
40103;Laerm;25814;48.550;9.108;2023-04-01T03:42:32;35.62;33.58;53.81;;
40103;Laerm;25814;48.550;9.108;2023-04-01T03:44:58;35.85;33.66;45.43;;
40103;Laerm;25814;48.550;9.108;2023-04-01T03:47:24;37.27;33.86;52.42;;
40103;Laerm;25814;48.550;9.108;2023-04-01T03:49:51;46.33;33.87;69.90;;
40103;Laerm;25814;48.550;9.108;2023-04-01T03:52:17;36.17;33.91;41.69;;
40103;Laerm;25814;48.550;9.108;2023-04-01T03:54:43;36.74;33.67;45.50;;
40103;Laerm;25814;48.550;9.108;2023-04-01T03:57:09;36.15;34.12;39.29;;
40103;Laerm;25814;48.550;9.108;2023-04-01T03:59:36;36.35;33.71;45.61;;
40103;Laerm;25814;48.550;9.108;2023-04-01T04:02:02;38.56;35.36;47.77;;
40103;Laerm;25814;48.550;9.108;2023-04-01T04:04:28;39.13;34.51;53.44;;
40103;Laerm;25814;48.550;9.108;2023-04-01T04:06:55;38.94;33.68;49.48;;
40103;Laerm;25814;48.550;9.108;2023-04-01T04:09:22;38.47;33.81;57.79;;
40103;Laerm;25814;48.550;9.108;2023-04-01T04:11:49;41.61;34.22;59.83;;
40103;Laerm;25814;48.550;9.108;2023-04-01T04:14:16;44.98;34.28;59.50;;
40103;Laerm;25814;48.550;9.108;2023-04-01T04:16:42;39.76;34.52;47.37;;
40103;Laerm;25814;48.550;9.108;2023-04-01T04:19:09;42.18;34.55;54.12;;
40103;Laerm;25814;48.550;9.108;2023-04-01T04:21:35;45.56;34.87;56.68;;
40103;Laerm;25814;48.550;9.108;2023-04-01T04:24:02;48.41;35.14;61.47;;
40103;Laerm;25814;48.550;9.108;2023-04-01T04:26:28;49.21;35.39;65.40;;
40103;Laerm;25814;48.550;9.108;2023-04-01T04:28:55;49.89;35.84;64.70;;
40103;Laerm;25814;48.550;9.108;2023-04-01T04:31:23;53.47;35.94;67.54;;
40103;Laerm;25814;48.550;9.108;2023-04-01T04:33:50;53.04;34.62;67.78;;
40103;Laerm;25814;48.550;9.108;2023-04-01T04:36:18;44.23;34.75;58.20;;
40103;Laerm;25814;48.550;9.108;2023-04-01T04:38:44;45.16;35.21;58.41;;
40103;Laerm;25814;48.550;9.108;2023-04-01T04:41:15;44.87;35.48;60.80;;
40103;Laerm;25814;48.550;9.108;2023-04-01T04:43:54;41.63;36.04;55.93;;
40103;Laerm;25814;48.550;9.108;2023-04-01T04:46:22;42.15;34.54;53.23;;
40103;Laerm;25814;48.550;9.108;2023-04-01T04:48:48;43.97;34.71;54.74;;
40103;Laerm;25814;48.550;9.108;2023-04-01T04:51:17;42.06;34.59;57.00;;
40103;Laerm;25814;48.550;9.108;2023-04-01T04:53:44;41.20;35.23;56.46;;
40103;Laerm;25814;48.550;9.108;2023-04-01T04:56:12;42.77;35.49;64.43;;
40103;Laerm;25814;48.550;9.108;2023-04-01T04:58:39;49.55;35.03;63.51;;
40103;Laerm;25814;48.550;9.108;2023-04-01T05:01:10;48.26;36.11;65.15;;
40103;Laerm;25814;48.550;9.108;2023-04-01T05:03:37;48.30;37.39;63.30;;
40103;Laerm;25814;48.550;9.108;2023-04-01T05:06:05;45.61;36.25;57.42;;
40103;Laerm;25814;48.550;9.108;2023-04-01T05:08:32;44.63;35.64;59.62;;
40103;Laerm;25814;48.550;9.108;2023-04-01T05:11:00;49.82;34.38;71.99;;
40103;Laerm;25814;48.550;9.108;2023-04-01T05:13:27;40.84;35.87;51.10;;
40103;Laerm;25814;48.550;9.108;2023-04-01T05:15:54;42.52;35.44;66.14;;
40103;Laerm;25814;48.550;9.108;2023-04-01T05:18:21;40.08;35.56;54.02;;
40103;Laerm;25814;48.550;9.108;2023-04-01T05:20:50;52.48;37.55;78.80;;
40103;Laerm;25814;48.550;9.108;2023-04-01T05:23:16;42.65;36.76;61.46;;
40103;Laerm;25814;48.550;9.108;2023-04-01T05:25:43;54.66;36.14;81.29;;
40103;Laerm;25814;48.550;9.108;2023-04-01T05:28:11;43.91;36.64;53.50;;
40103;Laerm;25814;48.550;9.108;2023-04-01T05:30:40;39.86;35.37;50.47;;
40103;Laerm;25814;48.550;9.108;2023-04-01T05:33:07;45.76;35.50;56.72;;
40103;Laerm;25814;48.550;9.108;2023-04-01T05:35:33;43.83;35.25;58.61;;
40103;Laerm;25814;48.550;9.108;2023-04-01T05:38:00;40.53;35.30;59.33;;
40103;Laerm;25814;48.550;9.108;2023-04-01T05:40:28;39.72;36.36;48.01;;
40103;Laerm;25814;48.550;9.108;2023-04-01T05:42:54;38.91;35.19;46.08;;
40103;Laerm;25814;48.550;9.108;2023-04-01T05:45:20;39.48;34.52;52.94;;
40103;Laerm;25814;48.550;9.108;2023-04-01T05:47:47;42.87;35.09;61.81;;
40103;Laerm;25814;48.550;9.108;2023-04-01T05:50:13;41.34;35.35;59.39;;
40103;Laerm;25814;48.550;9.108;2023-04-01T05:52:39;44.86;35.52;68.53;;
40103;Laerm;25814;48.550;9.108;2023-04-01T05:55:05;45.32;35.73;64.65;;
40103;Laerm;25814;48.550;9.108;2023-04-01T05:57:32;46.35;35.94;57.53;;
40103;Laerm;25814;48.550;9.108;2023-04-01T05:59:58;45.51;36.05;60.86;;
40103;Laerm;25814;48.550;9.108;2023-04-01T06:02:24;49.36;37.25;69.36;;
40103;Laerm;25814;48.550;9.108;2023-04-01T06:05:19;46.23;37.34;61.71;;
40103;Laerm;25814;48.550;9.108;2023-04-01T06:07:46;46.48;35.16;71.42;;
40103;Laerm;25814;48.550;9.108;2023-04-01T06:10:17;41.02;35.07;57.95;;
40103;Laerm;25814;48.550;9.108;2023-04-01T06:13:29;47.09;35.82;61.21;;
40103;Laerm;25814;48.550;9.108;2023-04-01T06:16:27;41.12;36.14;51.74;;
40103;Laerm;25814;48.550;9.108;2023-04-01T06:28:57;41.51;35.75;54.46;;
40103;Laerm;25814;48.550;9.108;2023-04-01T06:43:37;48.34;37.33;70.54;;
40103;Laerm;25814;48.550;9.108;2023-04-01T06:46:23;43.66;37.27;59.11;;
40103;Laerm;25814;48.550;9.108;2023-04-01T06:57:52;39.83;35.76;62.04;;
40103;Laerm;25814;48.550;9.108;2023-04-01T07:00:43;47.67;36.28;72.63;;
40103;Laerm;25814;48.550;9.108;2023-04-01T07:06:08;42.33;35.88;59.94;;
40103;Laerm;25814;48.550;9.108;2023-04-01T07:08:42;44.48;38.67;62.54;;
40103;Laerm;25814;48.550;9.108;2023-04-01T07:11:25;42.62;36.83;55.71;;
40103;Laerm;25814;48.550;9.108;2023-04-01T07:14:02;45.92;38.62;67.73;;
40103;Laerm;25814;48.550;9.108;2023-04-01T07:16:53;42.54;36.66;62.62;;
40103;Laerm;25814;48.550;9.108;2023-04-01T07:20:02;53.94;36.50;76.79;;
40103;Laerm;25814;48.550;9.108;2023-04-01T07:22:48;44.19;37.58;67.01;;
40103;Laerm;25814;48.550;9.108;2023-04-01T07:25:24;41.81;37.59;54.54;;
40103;Laerm;25814;48.550;9.108;2023-04-01T07:28:12;46.37;37.60;58.29;;
40103;Laerm;25814;48.550;9.108;2023-04-01T07:34:23;41.76;37.83;54.48;;
40103;Laerm;25814;48.550;9.108;2023-04-01T07:37:17;40.54;37.58;49.61;;
40103;Laerm;25814;48.550;9.108;2023-04-01T07:49:13;55.25;37.23;78.62;;
40103;Laerm;25814;48.550;9.108;2023-04-01T07:54:55;46.95;37.41;71.38;;
40103;Laerm;25814;48.550;9.108;2023-04-01T07:58:02;43.56;36.59;66.69;;
40103;Laerm;25814;48.550;9.108;2023-04-01T08:04:07;42.28;36.82;52.67;;
40103;Laerm;25814;48.550;9.108;2023-04-01T08:07:09;41.51;36.80;65.06;;
40103;Laerm;25814;48.550;9.108;2023-04-01T08:10:11;42.39;37.42;53.01;;
40103;Laerm;25814;48.550;9.108;2023-04-01T08:12:51;45.50;36.54;71.35;;
40103;Laerm;25814;48.550;9.108;2023-04-01T08:21:15;58.81;39.39;85.03;;
40103;Laerm;25814;48.550;9.108;2023-04-01T08:23:52;50.20;39.21;74.83;;
40103;Laerm;25814;48.550;9.108;2023-04-01T08:26:47;45.76;37.96;64.99;;
40103;Laerm;25814;48.550;9.108;2023-04-01T08:29:25;53.03;37.40;77.74;;
40103;Laerm;25814;48.550;9.108;2023-04-01T08:32:08;43.84;36.34;63.33;;
40103;Laerm;25814;48.550;9.108;2023-04-01T08:34:39;42.29;36.80;57.11;;
40103;Laerm;25814;48.550;9.108;2023-04-01T08:37:20;41.77;38.68;49.77;;
40103;Laerm;25814;48.550;9.108;2023-04-01T08:40:16;45.65;38.87;66.75;;
40103;Laerm;25814;48.550;9.108;2023-04-01T08:43:06;46.40;38.30;66.84;;
40103;Laerm;25814;48.550;9.108;2023-04-01T08:46:06;45.40;37.02;62.44;;
40103;Laerm;25814;48.550;9.108;2023-04-01T08:48:59;44.70;37.24;66.01;;
40103;Laerm;25814;48.550;9.108;2023-04-01T08:52:14;55.17;37.15;78.74;;
40103;Laerm;25814;48.550;9.108;2023-04-01T08:58:35;42.95;37.93;60.00;;
40103;Laerm;25814;48.550;9.108;2023-04-01T09:19:24;51.97;38.58;70.33;;
40103;Laerm;25814;48.550;9.108;2023-04-01T09:25:21;51.13;38.35;76.04;;
40103;Laerm;25814;48.550;9.108;2023-04-01T09:28:33;49.24;39.03;61.43;;
40103;Laerm;25814;48.550;9.108;2023-04-01T09:31:31;47.27;39.50;71.37;;
40103;Laerm;25814;48.550;9.108;2023-04-01T09:34:51;44.69;38.14;65.92;;
40103;Laerm;25814;48.550;9.108;2023-04-01T09:43:25;49.32;37.60;71.47;;
40103;Laerm;25814;48.550;9.108;2023-04-01T09:46:12;47.10;37.39;74.86;;
40103;Laerm;25814;48.550;9.108;2023-04-01T09:54:39;43.14;38.05;59.07;;
40103;Laerm;25814;48.550;9.108;2023-04-01T10:04:07;53.97;39.37;78.09;;
40103;Laerm;25814;48.550;9.108;2023-04-01T10:06:36;44.10;39.02;61.91;;
40103;Laerm;25814;48.550;9.108;2023-04-01T10:16:00;45.31;38.59;61.80;;
40103;Laerm;25814;48.550;9.108;2023-04-01T10:21:56;44.11;39.70;59.79;;
40103;Laerm;25814;48.550;9.108;2023-04-01T10:33:26;52.71;39.44;76.98;;
40103;Laerm;25814;48.550;9.108;2023-04-01T10:54:47;46.84;38.46;68.66;;
40103;Laerm;25814;48.550;9.108;2023-04-01T10:57:59;45.11;37.32;58.46;;
40103;Laerm;25814;48.550;9.108;2023-04-01T11:07:12;50.29;42.63;76.32;;
40103;Laerm;25814;48.550;9.108;2023-04-01T11:10:53;45.50;42.07;62.84;;
40103;Laerm;25814;48.550;9.108;2023-04-01T11:25:24;52.23;42.14;72.55;;
40103;Laerm;25814;48.550;9.108;2023-04-01T11:28:54;51.79;38.56;76.13;;
40103;Laerm;25814;48.550;9.108;2023-04-01T11:49:51;46.21;38.89;69.07;;
40103;Laerm;25814;48.550;9.108;2023-04-01T11:52:54;51.11;38.06;73.16;;
40103;Laerm;25814;48.550;9.108;2023-04-01T11:55:41;61.79;38.02;89.08;;
40103;Laerm;25814;48.550;9.108;2023-04-01T12:01:30;54.26;39.24;74.97;;
40103;Laerm;25814;48.550;9.108;2023-04-01T12:04:10;53.69;38.79;76.61;;
40103;Laerm;25814;48.550;9.108;2023-04-01T12:13:54;64.04;35.60;85.88;;
40103;Laerm;25814;48.550;9.108;2023-04-01T12:17:05;61.72;34.61;86.18;;
40103;Laerm;25814;48.550;9.108;2023-04-01T12:19:48;60.57;35.60;84.37;;
40103;Laerm;25814;48.550;9.108;2023-04-01T12:22:57;65.68;35.57;87.24;;
40103;Laerm;25814;48.550;9.108;2023-04-01T12:46:10;69.91;36.50;98.51;;
40103;Laerm;25814;48.550;9.108;2023-04-01T12:52:25;77.26;37.21;97.96;;
40103;Laerm;25814;48.550;9.108;2023-04-01T13:15:22;71.77;34.98;99.88;;
40103;Laerm;25814;48.550;9.108;2023-04-01T13:24:37;75.28;34.81;99.95;;
40103;Laerm;25814;48.550;9.108;2023-04-01T13:27:40;65.26;35.73;89.31;;
40103;Laerm;25814;48.550;9.108;2023-04-01T13:44:21;70.66;35.59;97.90;;
40103;Laerm;25814;48.550;9.108;2023-04-01T13:47:31;73.44;36.80;97.28;;
40103;Laerm;25814;48.550;9.108;2023-04-01T14:02:37;70.94;35.69;94.29;;
40103;Laerm;25814;48.550;9.108;2023-04-01T14:05:51;66.93;36.23;90.46;;
40103;Laerm;25814;48.550;9.108;2023-04-01T14:22:54;60.54;34.61;82.74;;
40103;Laerm;25814;48.550;9.108;2023-04-01T14:28:16;70.95;36.59;93.83;;
40103;Laerm;25814;48.550;9.108;2023-04-01T14:37:39;69.30;35.17;93.33;;
40103;Laerm;25814;48.550;9.108;2023-04-01T14:49:46;44.59;33.25;66.82;;
40103;Laerm;25814;48.550;9.108;2023-04-01T14:52:24;62.15;34.96;88.35;;
40103;Laerm;25814;48.550;9.108;2023-04-01T14:54:54;63.58;33.44;90.74;;
40103;Laerm;25814;48.550;9.108;2023-04-01T14:57:29;66.23;33.82;90.68;;
40103;Laerm;25814;48.550;9.108;2023-04-01T15:00:17;65.60;34.50;89.19;;
40103;Laerm;25814;48.550;9.108;2023-04-01T15:03:32;61.64;32.76;86.64;;
40103;Laerm;25814;48.550;9.108;2023-04-01T15:09:32;68.60;34.95;91.05;;
40103;Laerm;25814;48.550;9.108;2023-04-01T15:18:42;57.59;32.99;81.76;;
40103;Laerm;25814;48.550;9.108;2023-04-01T15:24:24;47.31;34.21;68.68;;
40103;Laerm;25814;48.550;9.108;2023-04-01T15:33:17;54.52;34.33;72.49;;
40103;Laerm;25814;48.550;9.108;2023-04-01T15:42:19;60.42;34.52;83.49;;
40103;Laerm;25814;48.550;9.108;2023-04-01T16:03:09;41.99;33.14;58.13;;
40103;Laerm;25814;48.550;9.108;2023-04-01T16:06:14;64.95;35.08;86.50;;
40103;Laerm;25814;48.550;9.108;2023-04-01T16:11:53;64.07;34.59;87.10;;
40103;Laerm;25814;48.550;9.108;2023-04-01T16:18:21;57.85;35.44;78.51;;
40103;Laerm;25814;48.550;9.108;2023-04-01T16:21:01;43.94;32.62;65.45;;
40103;Laerm;25814;48.550;9.108;2023-04-01T16:23:50;59.90;33.31;81.31;;
40103;Laerm;25814;48.550;9.108;2023-04-01T16:29:53;40.52;32.78;63.88;;
40103;Laerm;25814;48.550;9.108;2023-04-01T16:32:51;51.19;32.73;72.43;;
40103;Laerm;25814;48.550;9.108;2023-04-01T16:41:24;65.61;33.34;89.35;;
40103;Laerm;25814;48.550;9.108;2023-04-01T16:43:57;58.44;32.51;84.55;;
40103;Laerm;25814;48.550;9.108;2023-04-01T16:46:44;43.97;32.44;70.96;;
40103;Laerm;25814;48.550;9.108;2023-04-01T16:54:58;50.15;30.99;75.11;;
40103;Laerm;25814;48.550;9.108;2023-04-01T16:57:57;56.72;32.42;78.51;;
40103;Laerm;25814;48.550;9.108;2023-04-01T17:00:39;42.78;32.71;65.19;;
40103;Laerm;25814;48.550;9.108;2023-04-01T17:08:57;43.73;31.98;69.43;;
40103;Laerm;25814;48.550;9.108;2023-04-01T17:20:50;40.77;32.50;54.43;;
40103;Laerm;25814;48.550;9.108;2023-04-01T17:26:37;39.00;32.45;59.13;;
40103;Laerm;25814;48.550;9.108;2023-04-01T17:39:19;43.16;32.35;60.76;;
40103;Laerm;25814;48.550;9.108;2023-04-01T17:42:15;39.82;31.70;58.24;;
40103;Laerm;25814;48.550;9.108;2023-04-01T17:45:04;51.85;32.24;66.23;;
40103;Laerm;25814;48.550;9.108;2023-04-01T17:48:16;49.53;32.16;70.93;;
40103;Laerm;25814;48.550;9.108;2023-04-01T17:51:17;57.22;31.86;81.89;;
40103;Laerm;25814;48.550;9.108;2023-04-01T18:00:26;49.99;31.79;79.44;;
40103;Laerm;25814;48.550;9.108;2023-04-01T18:06:57;56.78;31.68;79.91;;
40103;Laerm;25814;48.550;9.108;2023-04-01T18:09:57;58.12;32.35;74.05;;
40103;Laerm;25814;48.550;9.108;2023-04-01T18:16:50;38.02;31.42;55.74;;
40103;Laerm;25814;48.550;9.108;2023-04-01T18:19:30;53.92;31.40;79.19;;
40103;Laerm;25814;48.550;9.108;2023-04-01T18:25:12;44.57;35.08;68.05;;
40103;Laerm;25814;48.550;9.108;2023-04-01T18:27:47;43.06;36.47;57.54;;
40103;Laerm;25814;48.550;9.108;2023-04-01T18:30:29;38.18;35.15;55.66;;
40103;Laerm;25814;48.550;9.108;2023-04-01T18:33:18;43.74;36.36;51.66;;
40103;Laerm;25814;48.550;9.108;2023-04-01T18:38:45;41.13;35.14;62.99;;
40103;Laerm;25814;48.550;9.108;2023-04-01T18:41:39;42.53;37.30;59.64;;
40103;Laerm;25814;48.550;9.108;2023-04-01T18:44:34;44.28;39.49;60.54;;
40103;Laerm;25814;48.550;9.108;2023-04-01T18:47:55;39.58;34.64;52.12;;
40103;Laerm;25814;48.550;9.108;2023-04-01T18:50:30;40.97;34.85;55.65;;
40103;Laerm;25814;48.550;9.108;2023-04-01T18:55:59;34.74;31.29;42.87;;
40103;Laerm;25814;48.550;9.108;2023-04-01T18:58:59;33.78;30.88;45.69;;
40103;Laerm;25814;48.550;9.108;2023-04-01T19:04:39;33.75;30.27;47.54;;
40103;Laerm;25814;48.550;9.108;2023-04-01T19:13:26;36.37;31.06;48.52;;
40103;Laerm;25814;48.550;9.108;2023-04-01T19:16:43;33.06;30.57;41.22;;
40103;Laerm;25814;48.550;9.108;2023-04-01T19:20:00;36.79;31.02;47.23;;
40103;Laerm;25814;48.550;9.108;2023-04-01T19:30:56;35.37;31.33;47.39;;
40103;Laerm;25814;48.550;9.108;2023-04-01T19:37:18;33.63;31.05;49.42;;
40103;Laerm;25814;48.550;9.108;2023-04-01T19:46:00;33.58;30.96;38.84;;
40103;Laerm;25814;48.550;9.108;2023-04-01T19:57:20;35.66;30.88;47.37;;
40103;Laerm;25814;48.550;9.108;2023-04-01T20:08:45;36.92;30.84;49.07;;
40103;Laerm;25814;48.550;9.108;2023-04-01T20:11:51;39.42;31.30;49.72;;
40103;Laerm;25814;48.550;9.108;2023-04-01T20:17:42;32.59;30.48;47.99;;
40103;Laerm;25814;48.550;9.108;2023-04-01T20:25:26;34.46;32.19;47.22;;
40103;Laerm;25814;48.550;9.108;2023-04-01T20:28:12;34.68;31.52;39.82;;
40103;Laerm;25814;48.550;9.108;2023-04-01T20:39:34;31.91;30.01;36.86;;
40103;Laerm;25814;48.550;9.108;2023-04-01T20:42:46;32.30;30.60;41.39;;
40103;Laerm;25814;48.550;9.108;2023-04-01T20:51:22;40.01;30.66;54.26;;
40103;Laerm;25814;48.550;9.108;2023-04-01T20:54:11;33.03;31.19;40.03;;
40103;Laerm;25814;48.550;9.108;2023-04-01T20:57:14;32.67;30.57;36.02;;
40103;Laerm;25814;48.550;9.108;2023-04-01T21:00:22;33.69;30.39;38.24;;
40103;Laerm;25814;48.550;9.108;2023-04-01T21:14:38;35.56;30.98;47.44;;
40103;Laerm;25814;48.550;9.108;2023-04-01T21:20:56;35.96;31.82;46.45;;
40103;Laerm;25814;48.550;9.108;2023-04-01T21:23:56;36.96;31.71;48.77;;
40103;Laerm;25814;48.550;9.108;2023-04-01T21:27:07;37.60;31.88;57.94;;
40103;Laerm;25814;48.550;9.108;2023-04-01T21:42:12;34.53;30.55;46.98;;
40103;Laerm;25814;48.550;9.108;2023-04-01T22:05:53;39.03;30.66;55.65;;
40103;Laerm;25814;48.550;9.108;2023-04-01T22:11:31;38.20;29.97;62.62;;
40103;Laerm;25814;48.550;9.108;2023-04-01T22:14:24;36.48;31.15;53.71;;
40103;Laerm;25814;48.550;9.108;2023-04-01T22:17:45;35.28;31.98;46.61;;
40103;Laerm;25814;48.550;9.108;2023-04-01T22:20:31;45.34;30.46;69.35;;
40103;Laerm;25814;48.550;9.108;2023-04-01T22:26:09;38.96;30.20;56.27;;
40103;Laerm;25814;48.550;9.108;2023-04-01T22:29:00;31.92;29.98;46.00;;
40103;Laerm;25814;48.550;9.108;2023-04-01T22:31:54;31.99;30.04;43.63;;
40103;Laerm;25814;48.550;9.108;2023-04-01T22:37:58;32.08;30.23;45.55;;
40103;Laerm;25814;48.550;9.108;2023-04-01T22:40:46;33.41;30.33;52.09;;
40103;Laerm;25814;48.550;9.108;2023-04-01T22:43:32;32.60;30.37;38.10;;
40103;Laerm;25814;48.550;9.108;2023-04-01T22:49:21;31.96;30.11;38.86;;
40103;Laerm;25814;48.550;9.108;2023-04-01T22:52:14;33.39;30.41;40.42;;
40103;Laerm;25814;48.550;9.108;2023-04-01T22:54:54;34.48;31.65;46.94;;
40103;Laerm;25814;48.550;9.108;2023-04-01T22:57:50;33.12;30.21;46.65;;
40103;Laerm;25814;48.550;9.108;2023-04-01T23:00:43;32.33;30.40;40.01;;
40103;Laerm;25814;48.550;9.108;2023-04-01T23:03:20;32.78;30.65;49.03;;
40103;Laerm;25814;48.550;9.108;2023-04-01T23:05:57;31.87;30.35;39.38;;
40103;Laerm;25814;48.550;9.108;2023-04-01T23:09:05;43.45;30.28;66.01;;
40103;Laerm;25814;48.550;9.108;2023-04-01T23:11:57;45.94;30.29;67.94;;
40103;Laerm;25814;48.550;9.108;2023-04-01T23:20:32;53.31;30.74;76.78;;
40103;Laerm;25814;48.550;9.108;2023-04-01T23:23:24;35.82;29.88;49.12;;
40103;Laerm;25814;48.550;9.108;2023-04-01T23:26:35;31.81;29.73;45.65;;
40103;Laerm;25814;48.550;9.108;2023-04-01T23:29:04;32.73;30.32;42.03;;
40103;Laerm;25814;48.550;9.108;2023-04-01T23:31:38;33.02;30.07;45.88;;
40103;Laerm;25814;48.550;9.108;2023-04-01T23:36:51;31.68;30.04;35.33;;
40103;Laerm;25814;48.550;9.108;2023-04-01T23:39:40;33.62;30.07;54.03;;
40103;Laerm;25814;48.550;9.108;2023-04-01T23:42:25;33.79;30.13;42.37;;
40103;Laerm;25814;48.550;9.108;2023-04-01T23:44:57;33.17;30.04;53.20;;
40103;Laerm;25814;48.550;9.108;2023-04-01T23:47:32;34.53;29.68;55.71;;
40103;Laerm;25814;48.550;9.108;2023-04-01T23:50:06;32.72;29.90;47.79;;
40103;Laerm;25814;48.550;9.108;2023-04-01T23:52:49;31.03;29.89;35.17;;
40103;Laerm;25814;48.550;9.108;2023-04-01T23:55:26;32.23;29.95;48.12;;
